Time;durP1;ratioP1;P1;durP2;ratioP2;P2;SDS_P1;SDS_P2;PMS_P1;PMS_P2;Temp;Humidity;BMP_temperature;BMP_pressure;BME280_temperature;BME280_humidity;BME280_pressure;Samples;Min_cycle;Max_cycle;Signal;HPM_P1;HPM_P2
2023/12/03 00:00:43;;;;;;;20.48;8.18;;;17.10;99.90;;;;;;5269709;28;20024;-72
2023/12/03 00:03:14;;;;;;;19.05;8.70;;;17.10;99.90;;;;;;5270792;28;20032;-85
2023/12/03 00:05:45;;;;;;;19.98;7.65;;;17.10;99.90;;;;;;5271021;28;20050;-72
2023/12/03 00:08:16;;;;;;;16.67;8.32;;;17.10;99.90;;;;;;5271356;28;20485;-71
2023/12/03 00:10:47;;;;;;;18.13;8.10;;;17.10;99.90;;;;;;5270479;28;20532;-89
2023/12/03 00:13:18;;;;;;;16.98;8.15;;;17.10;99.90;;;;;;5270749;28;20020;-88
2023/12/03 00:15:49;;;;;;;18.98;8.32;;;17.10;99.90;;;;;;5270541;28;20058;-86
2023/12/03 00:18:20;;;;;;;13.85;7.90;;;17.10;99.90;;;;;;5270822;28;20020;-74
2023/12/03 00:20:51;;;;;;;15.07;7.68;;;17.10;99.90;;;;;;5270693;28;20086;-72
2023/12/03 00:23:22;;;;;;;18.48;7.68;;;17.10;99.90;;;;;;5269481;28;20027;-89
2023/12/03 00:25:53;;;;;;;17.88;7.53;;;17.10;99.90;;;;;;5270527;28;20421;-79
2023/12/03 00:28:23;;;;;;;19.42;7.72;;;17.10;99.90;;;;;;5270791;28;20036;-78
2023/12/03 00:30:54;;;;;;;15.63;7.75;;;17.20;99.90;;;;;;5270291;28;20099;-87
2023/12/03 00:33:25;;;;;;;15.60;7.93;;;17.20;99.90;;;;;;5270259;28;20471;-88
2023/12/03 00:35:59;;;;;;;16.45;7.50;;;17.10;99.90;;;;;;5269858;28;20052;-82
2023/12/03 00:38:30;;;;;;;20.13;7.60;;;17.10;99.90;;;;;;5269711;28;20374;-82
2023/12/03 00:41:01;;;;;;;17.27;7.25;;;17.00;99.90;;;;;;5269397;28;20030;-84
2023/12/03 00:43:32;;;;;;;13.25;6.60;;;17.00;99.90;;;;;;5269187;28;20658;-76
2023/12/03 00:46:03;;;;;;;13.35;7.43;;;17.00;99.90;;;;;;5268387;28;20043;-73
2023/12/03 00:48:34;;;;;;;13.20;7.22;;;17.00;99.90;;;;;;5269046;28;20035;-72
2023/12/03 00:51:05;;;;;;;14.98;7.55;;;17.00;99.90;;;;;;5268794;28;20478;-71
2023/12/03 00:53:36;;;;;;;16.63;8.13;;;17.00;99.90;;;;;;5268663;28;20102;-84
2023/12/03 00:56:07;;;;;;;16.83;7.85;;;17.00;99.90;;;;;;5268760;28;20066;-77
2023/12/03 00:58:38;;;;;;;17.73;7.43;;;17.00;99.90;;;;;;5269270;28;20020;-80
2023/12/03 01:01:09;;;;;;;12.60;7.70;;;16.90;99.90;;;;;;5269856;28;20016;-74
2023/12/03 01:03:40;;;;;;;19.55;7.32;;;16.90;99.90;;;;;;5269616;28;20081;-72
2023/12/03 01:06:11;;;;;;;16.17;7.63;;;16.90;99.90;;;;;;5269572;28;20470;-88
2023/12/03 01:08:42;;;;;;;17.00;7.45;;;16.90;99.90;;;;;;5269232;28;20036;-71
2023/12/03 01:11:13;;;;;;;14.93;7.55;;;16.90;99.90;;;;;;5269277;28;20032;-75
2023/12/03 01:13:43;;;;;;;16.42;7.68;;;16.90;99.90;;;;;;5269327;28;20099;-73
2023/12/03 01:16:15;;;;;;;17.85;7.18;;;16.90;99.90;;;;;;5269026;28;20050;-86
2023/12/03 01:18:46;;;;;;;22.23;8.07;;;16.80;99.90;;;;;;5269175;28;20099;-86
2023/12/03 01:21:17;;;;;;;16.42;7.18;;;16.90;99.90;;;;;;5269083;28;20112;-89
2023/12/03 01:23:48;;;;;;;12.68;6.70;;;16.90;99.90;;;;;;5269153;28;20024;-76
2023/12/03 01:26:19;;;;;;;17.75;7.65;;;16.90;99.90;;;;;;5269052;28;20394;-85
2023/12/03 01:28:52;;;;;;;11.75;7.47;;;16.90;99.90;;;;;;5269348;28;20074;-86
2023/12/03 01:31:23;;;;;;;13.13;7.43;;;16.90;99.90;;;;;;5268966;28;20118;-82
2023/12/03 01:33:54;;;;;;;15.95;7.60;;;16.90;99.90;;;;;;5268882;28;20423;-74
2023/12/03 01:36:25;;;;;;;14.20;7.70;;;16.90;99.90;;;;;;5267452;28;20097;-87
2023/12/03 01:38:56;;;;;;;20.42;7.70;;;16.80;99.90;;;;;;5268111;28;20038;-85
2023/12/03 01:41:27;;;;;;;15.18;7.15;;;16.90;99.90;;;;;;5267639;28;20020;-80
2023/12/03 01:43:58;;;;;;;13.90;7.15;;;16.90;99.90;;;;;;5267654;28;20025;-78
2023/12/03 01:46:29;;;;;;;17.80;7.82;;;16.90;99.90;;;;;;5267228;28;20386;-80
2023/12/03 01:49:00;;;;;;;12.23;7.13;;;16.80;99.90;;;;;;5267581;28;20049;-71
2023/12/03 01:51:31;;;;;;;16.45;7.30;;;16.80;99.90;;;;;;5267263;28;20101;-79
2023/12/03 01:54:02;;;;;;;15.65;7.90;;;16.80;99.90;;;;;;5267807;28;20034;-83
2023/12/03 01:56:32;;;;;;;11.82;7.88;;;16.80;99.90;;;;;;5266726;28;20028;-74
2023/12/03 01:59:03;;;;;;;15.77;7.05;;;16.80;99.90;;;;;;5268361;28;20028;-82
2023/12/03 02:01:34;;;;;;;13.82;7.43;;;16.80;99.90;;;;;;5268524;28;20020;-86
2023/12/03 02:04:05;;;;;;;18.33;7.57;;;16.80;99.90;;;;;;5268518;28;20020;-87
2023/12/03 02:06:36;;;;;;;17.95;8.27;;;16.80;99.90;;;;;;5268105;28;20054;-87
2023/12/03 02:09:07;;;;;;;16.13;7.50;;;16.70;99.90;;;;;;5268365;28;20486;-74
2023/12/03 02:11:38;;;;;;;14.75;7.60;;;16.80;99.90;;;;;;5268201;28;20585;-74
2023/12/03 02:14:09;;;;;;;16.00;7.88;;;16.70;99.90;;;;;;5268589;28;20549;-83
2023/12/03 02:16:47;;;;;;;17.75;8.00;;;16.70;99.90;;;;;;5268449;28;20020;-85
2023/12/03 02:19:18;;;;;;;15.25;8.27;;;16.70;99.90;;;;;;5268374;28;20081;-77
2023/12/03 02:21:49;;;;;;;16.25;7.32;;;16.70;99.90;;;;;;5268245;28;20459;-74
2023/12/03 02:24:20;;;;;;;18.23;7.38;;;16.70;99.90;;;;;;5268151;28;20020;-87
2023/12/03 02:26:51;;;;;;;16.25;6.90;;;16.60;99.90;;;;;;5268072;28;20032;-86
2023/12/03 02:29:22;;;;;;;16.02;7.30;;;16.70;99.90;;;;;;5267966;28;20020;-89
2023/12/03 02:31:52;;;;;;;16.35;7.63;;;16.60;99.90;;;;;;5267223;28;20370;-75
2023/12/03 02:34:23;;;;;;;15.82;6.82;;;16.50;99.90;;;;;;5267394;28;20103;-72
2023/12/03 02:36:54;;;;;;;14.00;7.28;;;16.60;99.90;;;;;;5266295;28;20063;-76
2023/12/03 02:39:25;;;;;;;20.92;7.93;;;16.60;99.90;;;;;;5266698;28;20378;-71
2023/12/03 02:41:56;;;;;;;19.60;7.90;;;16.60;99.90;;;;;;5266585;28;20161;-74
2023/12/03 02:44:27;;;;;;;17.85;7.57;;;16.60;99.90;;;;;;5267660;28;20032;-71
2023/12/03 02:46:58;;;;;;;19.90;7.88;;;16.60;99.90;;;;;;5267700;28;20085;-80
2023/12/03 02:49:29;;;;;;;16.23;7.78;;;16.50;99.90;;;;;;5268164;28;20028;-72
2023/12/03 02:51:59;;;;;;;16.40;7.65;;;16.50;99.90;;;;;;5267977;28;20027;-85
2023/12/03 02:54:30;;;;;;;21.88;7.63;;;16.50;99.90;;;;;;5267772;28;20367;-71
2023/12/03 02:57:03;;;;;;;15.77;7.30;;;16.40;99.90;;;;;;5267662;28;20039;-87
2023/12/03 02:59:34;;;;;;;21.15;7.80;;;16.40;99.90;;;;;;5267866;28;20016;-74
2023/12/03 03:02:04;;;;;;;20.50;7.28;;;16.30;99.90;;;;;;5267826;28;20035;-87
2023/12/03 03:04:35;;;;;;;16.25;7.13;;;16.30;99.90;;;;;;5267704;28;20016;-86
2023/12/03 03:07:07;;;;;;;15.75;7.28;;;16.40;99.90;;;;;;5267481;28;20505;-80
2023/12/03 03:09:38;;;;;;;15.45;7.10;;;16.30;99.90;;;;;;5270810;28;20025;-86
2023/12/03 03:12:09;;;;;;;22.08;7.53;;;16.40;99.90;;;;;;5271947;28;20463;-71
2023/12/03 03:14:40;;;;;;;21.90;7.72;;;16.40;99.90;;;;;;5271960;28;20020;-76
2023/12/03 03:17:11;;;;;;;20.38;7.68;;;16.40;99.90;;;;;;5271774;28;20467;-89
2023/12/03 03:19:44;;;;;;;24.90;8.32;;;16.30;99.90;;;;;;5271731;28;20466;-87
2023/12/03 03:22:15;;;;;;;21.13;7.43;;;16.30;99.90;;;;;;5271778;28;20024;-89
2023/12/03 03:24:46;;;;;;;19.90;7.43;;;16.20;99.90;;;;;;5271619;28;20544;-90
2023/12/03 03:27:17;;;;;;;19.42;7.53;;;16.20;99.90;;;;;;5270551;28;20032;-80
2023/12/03 03:29:48;;;;;;;18.13;7.47;;;16.20;99.90;;;;;;5270013;28;20038;-73
2023/12/03 03:32:19;;;;;;;21.00;7.20;;;16.10;99.90;;;;;;5269974;28;20020;-71
2023/12/03 03:34:50;;;;;;;23.98;7.95;;;16.10;99.90;;;;;;5269339;28;20035;-71
2023/12/03 03:37:20;;;;;;;18.00;7.60;;;16.00;99.90;;;;;;5269088;28;20040;-79
2023/12/03 03:39:52;;;;;;;22.60;7.38;;;16.10;99.90;;;;;;5269452;28;20032;-78
2023/12/03 03:42:22;;;;;;;17.48;7.07;;;16.10;99.90;;;;;;5285470;28;20077;-82
2023/12/03 03:44:53;;;;;;;19.85;7.40;;;16.00;99.90;;;;;;5269690;28;20036;-73
2023/12/03 03:47:24;;;;;;;17.65;7.30;;;16.20;99.90;;;;;;5271159;28;20490;-87
2023/12/03 03:49:55;;;;;;;21.25;7.25;;;16.30;99.90;;;;;;5271056;28;20025;-87
2023/12/03 03:52:26;;;;;;;23.80;8.27;;;16.30;99.90;;;;;;5270028;28;20031;-84
2023/12/03 03:54:57;;;;;;;17.83;7.63;;;16.40;99.90;;;;;;5270779;28;20482;-89
2023/12/03 03:57:28;;;;;;;18.77;8.65;;;16.50;99.90;;;;;;5271066;28;20024;-79
2023/12/03 03:59:59;;;;;;;18.67;8.25;;;16.60;99.90;;;;;;5270957;28;20012;-71
2023/12/03 04:02:30;;;;;;;19.08;9.02;;;16.40;99.90;;;;;;5269480;28;20051;-87
2023/12/03 04:05:01;;;;;;;16.23;8.13;;;16.40;99.90;;;;;;5270620;28;20095;-76
2023/12/03 04:07:31;;;;;;;20.00;8.70;;;16.40;99.90;;;;;;5270524;28;20405;-75
2023/12/03 04:10:04;;;;;;;23.80;8.60;;;16.40;99.90;;;;;;5270817;28;20027;-74
2023/12/03 04:12:35;;;;;;;19.20;7.93;;;16.40;99.90;;;;;;5270810;28;20039;-83
2023/12/03 04:15:07;;;;;;;25.95;10.88;;;16.50;99.90;;;;;;5270447;28;20065;-80
2023/12/03 04:17:38;;;;;;;19.60;8.65;;;16.40;99.90;;;;;;5270278;28;20106;-86
2023/12/03 04:20:10;;;;;;;17.50;8.43;;;16.40;99.90;;;;;;5270581;28;20542;-83
2023/12/03 04:22:40;;;;;;;22.92;9.70;;;16.40;99.90;;;;;;5269388;28;20424;-86
2023/12/03 04:25:11;;;;;;;19.77;8.63;;;16.40;99.90;;;;;;5270003;28;20024;-80
2023/12/03 04:27:42;;;;;;;20.60;8.15;;;16.40;99.90;;;;;;5268893;28;20122;-75
2023/12/03 04:30:13;;;;;;;18.52;8.10;;;16.50;99.90;;;;;;5268974;28;20054;-72
2023/12/03 04:32:44;;;;;;;19.45;8.20;;;16.40;99.90;;;;;;5269219;28;20028;-79
2023/12/03 04:35:15;;;;;;;19.05;9.13;;;16.40;99.90;;;;;;5267689;28;20387;-84
2023/12/03 04:37:46;;;;;;;23.00;8.15;;;16.50;99.90;;;;;;5268602;28;20473;-72
2023/12/03 04:40:17;;;;;;;23.02;8.32;;;16.40;99.90;;;;;;5267686;28;20028;-82
2023/12/03 04:42:48;;;;;;;19.70;8.07;;;16.40;99.90;;;;;;5270130;28;20024;-82
2023/12/03 04:45:19;;;;;;;21.50;8.13;;;16.50;99.90;;;;;;5270259;28;20026;-72
2023/12/03 04:47:50;;;;;;;16.27;8.40;;;16.30;99.90;;;;;;5270060;28;20044;-86
2023/12/03 04:50:21;;;;;;;17.65;8.50;;;16.30;99.90;;;;;;5270073;28;20024;-79
2023/12/03 04:52:52;;;;;;;21.20;8.20;;;16.30;99.90;;;;;;5269983;28;20081;-88
2023/12/03 04:55:22;;;;;;;19.25;8.30;;;16.30;99.90;;;;;;5269632;28;20051;-75
2023/12/03 04:57:53;;;;;;;24.25;8.75;;;16.20;99.90;;;;;;5269748;28;20028;-75
2023/12/03 05:00:24;;;;;;;21.33;8.52;;;16.20;99.90;;;;;;5269568;28;20093;-83
2023/12/03 05:02:55;;;;;;;22.55;8.18;;;16.20;99.90;;;;;;5269527;28;20107;-86
2023/12/03 05:05:26;;;;;;;17.70;7.88;;;16.20;99.90;;;;;;5269578;28;20032;-82
2023/12/03 05:07:57;;;;;;;20.63;8.48;;;16.20;99.90;;;;;;5269374;28;20089;-84
2023/12/03 05:10:29;;;;;;;20.52;7.80;;;16.20;99.90;;;;;;5269329;28;20048;-83
2023/12/03 05:13:00;;;;;;;23.85;9.00;;;16.20;99.90;;;;;;5269388;28;20039;-87
2023/12/03 05:15:30;;;;;;;18.13;6.95;;;16.20;99.90;;;;;;5269307;28;20020;-86
2023/12/03 05:18:01;;;;;;;19.95;7.72;;;16.20;99.90;;;;;;5268700;28;20110;-86
2023/12/03 05:20:32;;;;;;;19.35;7.95;;;16.10;99.90;;;;;;5268761;28;20020;-75
2023/12/03 05:23:03;;;;;;;20.27;7.07;;;16.00;99.90;;;;;;5267938;28;20126;-76
2023/12/03 05:25:34;;;;;;;18.95;7.63;;;16.10;99.90;;;;;;5267660;28;20023;-75
2023/12/03 05:28:05;;;;;;;17.77;8.00;;;16.00;99.90;;;;;;5267760;28;20077;-85
2023/12/03 05:30:36;;;;;;;15.75;7.13;;;16.00;99.90;;;;;;5267083;28;20371;-73
2023/12/03 05:33:07;;;;;;;22.05;8.10;;;16.00;99.90;;;;;;5267710;28;20032;-80
2023/12/03 05:35:38;;;;;;;20.67;8.15;;;16.00;99.90;;;;;;5267546;28;20040;-81
2023/12/03 05:38:08;;;;;;;24.42;8.30;;;16.00;99.90;;;;;;5267699;28;20118;-82
2023/12/03 05:40:39;;;;;;;21.02;8.07;;;16.00;99.90;;;;;;5268967;28;20051;-78
2023/12/03 05:43:10;;;;;;;21.13;9.30;;;15.90;99.90;;;;;;5268651;28;20024;-80
2023/12/03 05:45:41;;;;;;;34.15;9.27;;;15.80;99.90;;;;;;5268438;28;20024;-87
2023/12/03 05:48:12;;;;;;;24.23;9.15;;;15.80;99.90;;;;;;5268428;28;20502;-82
2023/12/03 05:50:43;;;;;;;23.33;9.20;;;15.90;99.90;;;;;;5268479;28;20024;-80
2023/12/03 05:53:14;;;;;;;21.20;9.10;;;15.90;99.90;;;;;;5266970;28;20421;-85
2023/12/03 05:55:45;;;;;;;23.98;8.65;;;15.90;99.90;;;;;;5268465;28;20078;-87
2023/12/03 05:58:16;;;;;;;16.77;8.65;;;15.90;99.90;;;;;;5267035;28;20035;-90
2023/12/03 06:00:46;;;;;;;23.80;9.57;;;15.90;99.90;;;;;;5268765;28;20051;-82
2023/12/03 06:03:17;;;;;;;23.90;8.90;;;15.90;99.90;;;;;;5268574;28;20089;-88
2023/12/03 06:05:48;;;;;;;26.10;9.45;;;15.90;99.90;;;;;;5268264;28;20629;-78
2023/12/03 06:08:19;;;;;;;24.23;8.30;;;16.00;99.90;;;;;;5268239;28;20367;-72
2023/12/03 06:10:50;;;;;;;20.33;8.90;;;15.90;99.90;;;;;;5268350;28;20530;-71
2023/12/03 06:13:21;;;;;;;16.17;7.78;;;15.80;99.90;;;;;;5267673;28;20028;-72
2023/12/03 06:15:52;;;;;;;24.42;8.52;;;16.00;99.90;;;;;;5267525;28;20070;-79
2023/12/03 06:18:22;;;;;;;23.40;7.90;;;15.90;99.90;;;;;;5267084;28;20078;-73
2023/12/03 06:20:53;;;;;;;23.83;8.35;;;15.90;99.90;;;;;;5266798;28;20107;-74
2023/12/03 06:23:24;;;;;;;22.27;7.57;;;16.00;99.90;;;;;;5266572;28;20020;-84
2023/12/03 06:25:55;;;;;;;17.42;7.70;;;16.00;99.90;;;;;;5266539;28;20028;-75
2023/12/03 06:28:26;;;;;;;22.83;8.07;;;16.00;99.90;;;;;;5266586;28;20032;-72
2023/12/03 06:30:57;;;;;;;17.50;7.38;;;16.00;99.90;;;;;;5266896;28;20024;-84
2023/12/03 06:33:28;;;;;;;20.98;7.75;;;16.10;99.90;;;;;;5266214;28;20031;-74
2023/12/03 06:35:59;;;;;;;19.73;7.75;;;16.00;99.90;;;;;;5266106;28;20052;-87
2023/12/03 06:38:30;;;;;;;18.60;7.03;;;16.00;99.90;;;;;;5267938;28;20024;-84
2023/12/03 06:41:01;;;;;;;23.05;7.95;;;16.30;99.90;;;;;;5267791;28;20605;-80
2023/12/03 06:43:32;;;;;;;22.48;7.38;;;16.30;99.90;;;;;;5271009;28;20471;-82
2023/12/03 06:46:03;;;;;;;22.13;7.35;;;16.20;99.90;;;;;;5271910;28;20065;-72
2023/12/03 06:48:33;;;;;;;18.38;7.20;;;16.30;99.90;;;;;;5271895;28;20058;-71
2023/12/03 06:51:04;;;;;;;19.17;7.43;;;16.30;99.90;;;;;;5271872;28;20024;-84
2023/12/03 06:53:35;;;;;;;17.05;7.45;;;16.30;99.90;;;;;;5271862;28;20031;-72
2023/12/03 06:56:10;;;;;;;19.95;7.82;;;16.30;99.90;;;;;;5271754;28;20032;-73
2023/12/03 06:58:41;;;;;;;21.50;8.45;;;16.40;99.90;;;;;;5271738;28;20020;-78
2023/12/03 07:01:13;;;;;;;23.08;8.05;;;16.50;99.90;;;;;;5272046;28;20472;-71
2023/12/03 07:03:44;;;;;;;24.83;8.85;;;16.40;99.90;;;;;;5271645;28;20059;-84
2023/12/03 07:06:15;;;;;;;18.90;8.13;;;16.50;99.90;;;;;;5271742;28;20071;-87
2023/12/03 07:08:46;;;;;;;23.00;8.50;;;16.50;99.90;;;;;;5271697;28;20024;-71
2023/12/03 07:11:17;;;;;;;19.98;7.63;;;16.50;99.90;;;;;;5271330;28;20020;-71
2023/12/03 07:13:48;;;;;;;25.40;8.63;;;16.60;99.90;;;;;;5270787;28;20032;-72
2023/12/03 07:16:18;;;;;;;20.73;8.63;;;16.60;99.90;;;;;;5270316;28;20105;-72
2023/12/03 07:18:49;;;;;;;17.23;9.60;;;16.70;99.90;;;;;;5270528;28;20020;-71
2023/12/03 07:21:20;;;;;;;16.45;9.25;;;16.80;99.90;;;;;;5270306;28;20054;-71
2023/12/03 07:23:51;;;;;;;20.17;9.18;;;16.80;99.90;;;;;;5268906;28;20017;-77
2023/12/03 07:26:22;;;;;;;20.42;9.60;;;16.90;99.90;;;;;;5270147;28;20107;-81
2023/12/03 07:28:53;;;;;;;18.25;10.05;;;17.00;99.90;;;;;;5270871;28;20089;-76
2023/12/03 07:31:24;;;;;;;15.93;9.63;;;17.10;99.90;;;;;;5271293;28;20417;-73
2023/12/03 07:33:55;;;;;;;19.35;9.52;;;17.10;99.90;;;;;;5271437;28;20166;-73
2023/12/03 07:36:26;;;;;;;18.45;10.38;;;17.20;99.90;;;;;;5270835;28;20052;-72
2023/12/03 07:38:57;;;;;;;21.05;10.13;;;17.20;99.90;;;;;;5271295;28;20379;-72
2023/12/03 07:41:27;;;;;;;21.13;10.27;;;17.30;99.90;;;;;;5271203;28;20021;-87
2023/12/03 07:43:58;;;;;;;22.08;10.63;;;17.40;99.90;;;;;;5271152;28;20031;-74
2023/12/03 07:46:31;;;;;;;20.50;11.73;;;17.40;99.90;;;;;;5270992;28;20044;-71
2023/12/03 07:49:03;;;;;;;24.13;10.68;;;17.50;99.90;;;;;;5270858;28;20016;-77
2023/12/03 07:51:34;;;;;;;18.67;9.63;;;17.50;99.90;;;;;;5286519;28;20052;-85
2023/12/03 07:54:05;;;;;;;16.55;9.35;;;17.50;99.90;;;;;;5269831;28;20047;-72
2023/12/03 07:56:37;;;;;;;15.43;9.70;;;17.60;99.90;;;;;;5270735;28;20057;-79
2023/12/03 07:59:08;;;;;;;17.83;9.43;;;17.70;99.90;;;;;;5270605;28;20024;-75
2023/12/03 08:01:39;;;;;;;20.13;9.05;;;17.70;99.90;;;;;;5270646;28;20024;-75
2023/12/03 08:04:10;;;;;;;17.95;9.20;;;17.70;99.90;;;;;;5269167;28;20073;-71
2023/12/03 08:06:41;;;;;;;17.25;8.55;;;17.80;99.90;;;;;;5269981;28;20119;-74
2023/12/03 08:09:12;;;;;;;15.20;7.82;;;17.80;99.90;;;;;;5269902;28;20077;-72
2023/12/03 08:11:43;;;;;;;14.13;7.65;;;17.90;99.90;;;;;;5269094;28;20113;-82
2023/12/03 08:14:14;;;;;;;17.35;7.55;;;17.90;99.90;;;;;;5269016;28;20044;-71
2023/12/03 08:16:45;;;;;;;19.63;7.70;;;18.10;99.90;;;;;;5269153;28;20052;-72
2023/12/03 08:19:16;;;;;;;14.82;7.28;;;18.00;99.90;;;;;;5269193;28;20486;-83
2023/12/03 08:21:47;;;;;;;15.20;6.75;;;18.00;99.90;;;;;;5269573;28;20032;-71
2023/12/03 08:24:18;;;;;;;16.25;6.82;;;18.00;99.90;;;;;;5270146;28;20073;-85
2023/12/03 08:26:49;;;;;;;17.98;7.03;;;17.90;99.90;;;;;;5270148;28;20441;-72
2023/12/03 08:29:20;;;;;;;16.20;7.20;;;18.00;99.90;;;;;;5270269;28;20024;-75
2023/12/03 08:31:51;;;;;;;16.35;7.00;;;18.00;99.90;;;;;;5270215;28;20107;-84
2023/12/03 08:34:22;;;;;;;15.32;6.93;;;18.00;99.90;;;;;;5270313;28;20397;-87
2023/12/03 08:36:53;;;;;;;15.20;7.18;;;18.00;99.90;;;;;;5269778;28;20059;-81
2023/12/03 08:39:24;;;;;;;14.57;7.18;;;18.10;99.90;;;;;;5269921;28;20035;-83
2023/12/03 08:41:54;;;;;;;18.73;7.60;;;18.10;99.90;;;;;;5269950;28;20020;-85
2023/12/03 08:44:25;;;;;;;14.80;7.18;;;18.10;99.90;;;;;;5269757;28;20052;-79
2023/12/03 08:46:56;;;;;;;18.17;7.72;;;18.30;99.90;;;;;;5269488;28;20040;-86
2023/12/03 08:49:28;;;;;;;16.27;8.02;;;18.50;99.90;;;;;;5269758;28;20020;-86
2023/12/03 08:51:59;;;;;;;18.40;9.88;;;18.70;99.90;;;;;;5269459;28;20660;-84
2023/12/03 08:54:32;;;;;;;20.65;10.45;;;18.70;99.90;;;;;;5269419;28;20111;-82
2023/12/03 08:57:03;;;;;;;19.00;10.00;;;18.80;99.90;;;;;;5269538;28;20111;-76
2023/12/03 08:59:36;;;;;;;15.52;9.48;;;18.60;99.90;;;;;;5269376;28;20028;-87
2023/12/03 09:02:07;;;;;;;15.27;9.48;;;18.60;99.90;;;;;;5268496;28;20115;-87
2023/12/03 09:04:38;;;;;;;17.52;8.60;;;18.70;99.90;;;;;;5269180;28;20108;-77
2023/12/03 09:07:09;;;;;;;17.73;9.18;;;18.80;99.90;;;;;;5266837;28;20044;-72
2023/12/03 09:09:42;;;;;;;21.50;10.65;;;18.90;99.90;;;;;;5267956;28;20760;-73
2023/12/03 09:12:15;;;;;;;16.88;10.90;;;19.00;99.90;;;;;;5269052;28;20035;-72
2023/12/03 09:14:46;;;;;;;22.10;11.27;;;19.00;99.90;;;;;;5269348;28;20015;-71
2023/12/03 09:17:16;;;;;;;21.55;11.57;;;19.00;99.90;;;;;;5268072;28;20028;-82
2023/12/03 09:19:47;;;;;;;18.83;13.45;;;19.10;99.90;;;;;;5269023;28;20082;-85
2023/12/03 09:22:18;;;;;;;22.33;11.90;;;19.30;99.90;;;;;;5268907;28;20035;-85
2023/12/03 09:24:49;;;;;;;16.13;10.25;;;19.30;99.90;;;;;;5284594;28;20028;-85
2023/12/03 09:27:20;;;;;;;16.63;10.15;;;19.60;99.90;;;;;;5268837;28;20035;-85
2023/12/03 09:29:51;;;;;;;18.58;9.68;;;19.70;99.90;;;;;;5268840;28;20025;-86
2023/12/03 09:32:22;;;;;;;14.75;9.35;;;20.00;99.90;;;;;;5269305;28;20114;-90
2023/12/03 09:34:53;;;;;;;20.95;11.38;;;20.00;99.90;;;;;;5269580;28;20024;-79
2023/12/03 09:37:23;;;;;;;19.77;9.38;;;20.50;99.90;;;;;;5269654;28;20052;-75
2023/12/03 09:39:56;;;;;;;15.00;9.55;;;20.30;99.90;;;;;;5269172;28;20039;-72
2023/12/03 09:42:28;;;;;;;13.75;8.57;;;20.60;99.90;;;;;;5269405;28;20020;-82
2023/12/03 09:45:04;;;;;;;14.32;8.70;;;20.80;99.90;;;;;;5269339;28;20056;-72
2023/12/03 09:47:36;;;;;;;16.60;8.70;;;20.90;99.90;;;;;;5268999;28;20032;-87
2023/12/03 09:50:08;;;;;;;17.77;10.65;;;20.70;99.90;;;;;;5269114;28;20035;-88
2023/12/03 09:52:42;;;;;;;13.40;9.57;;;20.60;99.90;;;;;;5268698;28;20475;-86
2023/12/03 09:55:14;;;;;;;20.23;11.57;;;20.70;99.90;;;;;;5268393;28;20024;-87
2023/12/03 09:57:47;;;;;;;19.23;11.30;;;20.60;99.90;;;;;;5267655;28;20111;-72
2023/12/03 10:00:21;;;;;;;15.77;9.98;;;20.80;99.90;;;;;;5267913;28;20035;-79
2023/12/03 10:02:53;;;;;;;17.17;9.75;;;20.80;99.90;;;;;;5267115;28;20016;-76
2023/12/03 10:05:24;;;;;;;16.23;10.15;;;21.00;99.90;;;;;;5267074;28;20035;-85
2023/12/03 10:07:55;;;;;;;17.80;13.82;;;21.30;99.90;;;;;;5266837;28;20391;-77
2023/12/03 10:10:31;;;;;;;20.45;14.65;;;21.30;99.90;;;;;;5267090;28;20058;-75
2023/12/03 10:13:04;;;;;;;25.35;15.70;;;21.20;99.90;;;;;;5266988;28;20043;-80
2023/12/03 10:15:35;;;;;;;16.42;14.63;;;21.30;99.90;;;;;;5267242;28;20016;-88
2023/12/03 10:18:06;;;;;;;20.65;14.40;;;21.30;99.90;;;;;;5267946;28;20043;-81
2023/12/03 10:20:38;;;;;;;17.88;14.18;;;21.20;99.90;;;;;;5268021;28;20561;-87
2023/12/03 10:23:16;;;;;;;22.65;15.00;;;21.20;99.90;;;;;;5267963;28;20083;-82
2023/12/03 10:25:47;;;;;;;20.20;15.70;;;21.10;99.90;;;;;;5267949;28;20059;-87
2023/12/03 10:28:18;;;;;;;20.92;16.90;;;21.20;99.90;;;;;;5268332;28;20055;-87
2023/12/03 10:30:51;;;;;;;18.65;15.18;;;21.40;99.90;;;;;;5267965;28;20020;-88
2023/12/03 10:33:21;;;;;;;22.20;15.40;;;21.40;99.90;;;;;;5268277;28;20101;-76
2023/12/03 10:36:00;;;;;;;22.75;17.17;;;21.00;99.90;;;;;;5267515;28;20047;-77
2023/12/03 10:38:39;;;;;;;23.00;17.63;;;21.00;99.90;;;;;;5267698;28;20059;-85
2023/12/03 10:41:16;;;;;;;25.40;15.80;;;21.00;99.90;;;;;;5268029;28;20036;-86
2023/12/03 10:43:46;;;;;;;26.70;17.85;;;20.90;99.90;;;;;;5268141;28;20440;-87
2023/12/03 10:46:17;;;;;;;23.05;14.88;;;20.90;99.90;;;;;;5267660;28;20032;-84
2023/12/03 10:48:49;;;;;;;22.92;17.73;;;21.10;99.90;;;;;;5267745;28;20036;-79
2023/12/03 10:51:20;;;;;;;17.33;15.52;;;20.90;99.90;;;;;;5266990;28;20043;-83
2023/12/03 10:53:52;;;;;;;23.98;15.77;;;20.80;99.90;;;;;;5267329;28;20482;-81
2023/12/03 10:56:24;;;;;;;22.08;15.55;;;20.80;99.90;;;;;;5282368;28;20491;-78
2023/12/03 10:59:00;;;;;;;22.33;16.80;;;20.70;99.90;;;;;;5266347;28;20039;-83
2023/12/03 11:01:32;;;;;;;25.45;15.48;;;20.70;99.90;;;;;;5266987;28;20024;-84
2023/12/03 11:04:16;;;;;;;21.27;15.23;;;20.80;99.90;;;;;;5267509;28;20024;-81
2023/12/03 11:06:49;;;;;;;17.67;15.43;;;20.60;99.90;;;;;;5267356;28;20040;-86
2023/12/03 11:09:20;;;;;;;22.45;14.88;;;20.80;99.90;;;;;;5267516;28;20032;-76
2023/12/03 11:11:52;;;;;;;20.00;12.85;;;21.10;99.90;;;;;;5267643;28;20039;-76
2023/12/03 11:14:23;;;;;;;18.15;14.68;;;21.40;99.90;;;;;;5266231;28;20429;-71
2023/12/03 11:17:09;;;;;;;17.50;12.10;;;21.50;99.90;;;;;;5267703;28;20032;-75
2023/12/03 11:19:42;;;;;;;16.35;12.45;;;21.60;99.90;;;;;;5267379;28;20503;-75
2023/12/03 11:22:22;;;;;;;18.25;12.00;;;21.50;99.90;;;;;;5267522;28;20117;-81
2023/12/03 11:25:17;;;;;;;19.38;14.43;;;21.20;99.90;;;;;;5267722;28;20036;-83
2023/12/03 11:27:48;;;;;;;22.55;14.45;;;20.90;99.90;;;;;;5267254;28;20129;-85
2023/12/03 11:30:40;;;;;;;17.52;13.93;;;21.00;99.90;;;;;;5270191;28;20027;-72
2023/12/03 11:33:14;;;;;;;21.38;14.63;;;21.00;99.90;;;;;;5271561;28;20077;-89
2023/12/03 11:35:46;;;;;;;24.73;15.07;;;20.90;99.90;;;;;;5270930;28;20019;-72
2023/12/03 11:38:21;;;;;;;20.58;14.32;;;20.90;99.90;;;;;;5269943;28;20036;-76
2023/12/03 11:40:52;;;;;;;19.88;13.60;;;20.80;99.90;;;;;;5271329;28;20008;-71
2023/12/03 11:43:24;;;;;;;19.38;12.73;;;20.90;99.90;;;;;;5271231;28;20077;-76
2023/12/03 11:45:55;;;;;;;19.98;12.98;;;20.90;99.90;;;;;;5270884;28;20080;-75
2023/12/03 11:48:29;;;;;;;19.05;14.52;;;20.90;99.90;;;;;;5270443;28;20483;-72
2023/12/03 11:51:00;;;;;;;22.55;15.43;;;20.90;99.90;;;;;;5270222;28;20012;-76
2023/12/03 11:53:59;;;;;;;20.08;14.75;;;21.00;99.90;;;;;;5269445;28;20020;-78
2023/12/03 11:56:30;;;;;;;21.63;14.82;;;21.00;99.90;;;;;;5269629;28;20040;-74
2023/12/03 11:59:01;;;;;;;21.77;14.52;;;20.90;99.90;;;;;;5269491;28;20024;-72
2023/12/03 12:01:32;;;;;;;20.13;15.60;;;21.20;99.90;;;;;;5269184;28;20093;-77
2023/12/03 12:04:02;;;;;;;17.60;14.90;;;21.40;99.90;;;;;;5269285;28;20069;-72
2023/12/03 12:06:34;;;;;;;20.08;14.20;;;21.10;99.90;;;;;;5269794;28;20104;-73
2023/12/03 12:09:11;;;;;;;20.63;14.55;;;21.10;99.90;;;;;;5270597;28;20439;-71
2023/12/03 12:11:42;;;;;;;20.50;14.95;;;21.10;99.90;;;;;;5270619;28;20517;-73
2023/12/03 12:14:13;;;;;;;19.42;13.13;;;21.30;99.90;;;;;;5270316;28;20028;-72
2023/12/03 12:16:47;;;;;;;14.70;13.20;;;21.20;99.90;;;;;;5270402;28;20035;-86
2023/12/03 12:19:18;;;;;;;16.70;11.60;;;21.30;99.90;;;;;;5270322;28;20467;-81
2023/12/03 12:21:56;;;;;;;22.30;13.50;;;21.10;99.90;;;;;;5270106;28;20040;-74
2023/12/03 12:24:27;;;;;;;21.42;14.63;;;20.90;99.90;;;;;;5269016;28;20020;-71
2023/12/03 12:26:58;;;;;;;16.60;11.52;;;21.10;99.90;;;;;;5270209;28;20797;-72
2023/12/03 12:29:29;;;;;;;21.85;11.93;;;21.20;99.90;;;;;;5268851;28;20024;-72
2023/12/03 12:32:00;;;;;;;17.38;11.82;;;21.00;99.90;;;;;;5270206;28;20371;-72
2023/12/03 12:34:33;;;;;;;20.52;11.38;;;20.90;99.90;;;;;;5270083;28;20069;-72
2023/12/03 12:37:05;;;;;;;20.92;10.98;;;20.90;99.90;;;;;;5270043;28;20083;-79
2023/12/03 12:39:36;;;;;;;16.92;11.20;;;20.70;99.90;;;;;;5270358;28;20024;-72
2023/12/03 12:42:24;;;;;;;23.17;14.68;;;20.60;99.90;;;;;;5269872;28;20024;-71
2023/12/03 12:44:56;;;;;;;21.55;14.13;;;20.50;99.90;;;;;;5269126;28;20023;-72
2023/12/03 12:47:39;;;;;;;20.08;13.98;;;20.50;99.90;;;;;;5268970;28;20032;-72
2023/12/03 12:50:10;;;;;;;26.88;14.95;;;20.30;99.90;;;;;;5268500;28;20043;-72
2023/12/03 12:52:52;;;;;;;19.48;12.82;;;20.40;99.90;;;;;;5268389;28;20016;-72
2023/12/03 12:55:30;;;;;;;20.02;14.18;;;20.20;99.90;;;;;;5268507;28;20028;-72